sensor_id;sensor_type;location;lat;lon;timestamp;temperature;humidity
11497;DHT22;5805;51.542;7.230;2023-04-19T00:02:15;12.70;99.90
11497;DHT22;5805;51.542;7.230;2023-04-19T00:04:42;12.60;99.90
11497;DHT22;5805;51.542;7.230;2023-04-19T00:07:08;12.60;99.90
11497;DHT22;5805;51.542;7.230;2023-04-19T00:09:33;12.70;99.90
11497;DHT22;5805;51.542;7.230;2023-04-19T00:11:59;12.60;99.90
11497;DHT22;5805;51.542;7.230;2023-04-19T00:14:25;12.60;99.90
11497;DHT22;5805;51.542;7.230;2023-04-19T00:16:50;12.90;99.90
11497;DHT22;5805;51.542;7.230;2023-04-19T00:19:16;12.60;99.90
11497;DHT22;5805;51.542;7.230;2023-04-19T00:21:43;12.50;99.90
11497;DHT22;5805;51.542;7.230;2023-04-19T00:24:09;12.50;99.90
11497;DHT22;5805;51.542;7.230;2023-04-19T00:26:34;12.50;99.90
11497;DHT22;5805;51.542;7.230;2023-04-19T00:29:00;12.60;99.90
11497;DHT22;5805;51.542;7.230;2023-04-19T00:31:26;12.40;99.90
11497;DHT22;5805;51.542;7.230;2023-04-19T00:33:51;12.40;99.90
11497;DHT22;5805;51.542;7.230;2023-04-19T00:36:17;12.30;99.90
11497;DHT22;5805;51.542;7.230;2023-04-19T00:38:44;12.30;99.90
11497;DHT22;5805;51.542;7.230;2023-04-19T00:41:10;12.30;99.90
11497;DHT22;5805;51.542;7.230;2023-04-19T00:43:35;12.50;99.90
11497;DHT22;5805;51.542;7.230;2023-04-19T00:46:01;12.20;99.90
11497;DHT22;5805;51.542;7.230;2023-04-19T00:48:27;12.20;99.90
11497;DHT22;5805;51.542;7.230;2023-04-19T00:50:54;12.10;99.90
11497;DHT22;5805;51.542;7.230;2023-04-19T00:53:19;12.20;99.90
11497;DHT22;5805;51.542;7.230;2023-04-19T00:55:47;12.30;99.90
11497;DHT22;5805;51.542;7.230;2023-04-19T00:58:12;12.20;99.90
11497;DHT22;5805;51.542;7.230;2023-04-19T01:00:38;12.30;99.90
11497;DHT22;5805;51.542;7.230;2023-04-19T01:03:04;12.30;99.90
11497;DHT22;5805;51.542;7.230;2023-04-19T01:05:30;12.30;99.90
11497;DHT22;5805;51.542;7.230;2023-04-19T01:07:55;12.30;99.90
11497;DHT22;5805;51.542;7.230;2023-04-19T01:10:21;12.30;99.90
11497;DHT22;5805;51.542;7.230;2023-04-19T01:12:48;12.50;99.90
11497;DHT22;5805;51.542;7.230;2023-04-19T01:15:14;12.50;99.90
11497;DHT22;5805;51.542;7.230;2023-04-19T01:17:39;12.60;99.90
11497;DHT22;5805;51.542;7.230;2023-04-19T01:20:06;12.70;99.90
11497;DHT22;5805;51.542;7.230;2023-04-19T01:22:34;12.70;99.90
11497;DHT22;5805;51.542;7.230;2023-04-19T01:25:00;12.70;99.90
11497;DHT22;5805;51.542;7.230;2023-04-19T01:27:25;12.70;99.90
11497;DHT22;5805;51.542;7.230;2023-04-19T01:29:51;12.70;99.90
11497;DHT22;5805;51.542;7.230;2023-04-19T01:32:17;12.70;99.90
11497;DHT22;5805;51.542;7.230;2023-04-19T01:34:42;12.70;99.90
11497;DHT22;5805;51.542;7.230;2023-04-19T01:37:08;12.50;99.90
11497;DHT22;5805;51.542;7.230;2023-04-19T01:39:35;12.50;99.90
11497;DHT22;5805;51.542;7.230;2023-04-19T01:42:01;12.40;99.90
11497;DHT22;5805;51.542;7.230;2023-04-19T01:44:27;12.40;99.90
11497;DHT22;5805;51.542;7.230;2023-04-19T01:46:52;12.50;99.90
11497;DHT22;5805;51.542;7.230;2023-04-19T01:49:18;12.50;99.90
11497;DHT22;5805;51.542;7.230;2023-04-19T01:51:44;12.50;99.90
11497;DHT22;5805;51.542;7.230;2023-04-19T01:54:10;12.50;99.90
11497;DHT22;5805;51.542;7.230;2023-04-19T01:56:37;12.60;99.90
11497;DHT22;5805;51.542;7.230;2023-04-19T01:59:02;12.70;99.90
11497;DHT22;5805;51.542;7.230;2023-04-19T02:01:28;12.40;99.90
11497;DHT22;5805;51.542;7.230;2023-04-19T02:03:54;12.30;99.90
11497;DHT22;5805;51.542;7.230;2023-04-19T02:06:19;12.20;99.90
11497;DHT22;5805;51.542;7.230;2023-04-19T02:08:45;12.30;99.90
11497;DHT22;5805;51.542;7.230;2023-04-19T02:11:12;12.30;99.90
11497;DHT22;5805;51.542;7.230;2023-04-19T02:13:40;12.20;99.90
11497;DHT22;5805;51.542;7.230;2023-04-19T02:16:06;12.20;99.90
11497;DHT22;5805;51.542;7.230;2023-04-19T02:18:32;12.30;99.90
11497;DHT22;5805;51.542;7.230;2023-04-19T02:20:58;12.30;99.90
11497;DHT22;5805;51.542;7.230;2023-04-19T02:23:24;12.40;99.90
11497;DHT22;5805;51.542;7.230;2023-04-19T02:25:50;12.40;99.90
11497;DHT22;5805;51.542;7.230;2023-04-19T02:28:16;12.50;99.90
11497;DHT22;5805;51.542;7.230;2023-04-19T02:30:43;12.50;99.90
11497;DHT22;5805;51.542;7.230;2023-04-19T02:33:09;12.30;99.90
11497;DHT22;5805;51.542;7.230;2023-04-19T02:35:34;12.30;99.90
11497;DHT22;5805;51.542;7.230;2023-04-19T02:38:01;12.30;99.90
11497;DHT22;5805;51.542;7.230;2023-04-19T02:40:27;12.30;99.90
11497;DHT22;5805;51.542;7.230;2023-04-19T02:42:53;12.20;99.90
11497;DHT22;5805;51.542;7.230;2023-04-19T02:45:18;12.30;99.90
11497;DHT22;5805;51.542;7.230;2023-04-19T02:47:45;12.40;99.90
11497;DHT22;5805;51.542;7.230;2023-04-19T02:50:11;12.30;99.90
11497;DHT22;5805;51.542;7.230;2023-04-19T02:52:37;12.20;99.90
11497;DHT22;5805;51.542;7.230;2023-04-19T02:55:03;12.20;99.90
11497;DHT22;5805;51.542;7.230;2023-04-19T02:57:29;12.30;99.90
11497;DHT22;5805;51.542;7.230;2023-04-19T02:59:54;12.30;99.90
11497;DHT22;5805;51.542;7.230;2023-04-19T03:02:20;12.30;99.90
11497;DHT22;5805;51.542;7.230;2023-04-19T03:04:47;12.20;99.90
11497;DHT22;5805;51.542;7.230;2023-04-19T03:07:13;12.50;99.90
11497;DHT22;5805;51.542;7.230;2023-04-19T03:09:38;12.20;99.90
11497;DHT22;5805;51.542;7.230;2023-04-19T03:12:05;12.10;99.90
11497;DHT22;5805;51.542;7.230;2023-04-19T03:14:31;12.20;99.90
11497;DHT22;5805;51.542;7.230;2023-04-19T03:16:57;12.40;99.90
11497;DHT22;5805;51.542;7.230;2023-04-19T03:19:22;12.20;99.90
11497;DHT22;5805;51.542;7.230;2023-04-19T03:21:50;12.20;99.90
11497;DHT22;5805;51.542;7.230;2023-04-19T03:24:17;12.00;99.90
11497;DHT22;5805;51.542;7.230;2023-04-19T03:26:42;12.00;99.90
11497;DHT22;5805;51.542;7.230;2023-04-19T03:29:08;11.90;99.90
11497;DHT22;5805;51.542;7.230;2023-04-19T03:31:34;12.00;99.90
11497;DHT22;5805;51.542;7.230;2023-04-19T03:33:59;12.00;99.90
11497;DHT22;5805;51.542;7.230;2023-04-19T03:36:26;11.90;99.90
11497;DHT22;5805;51.542;7.230;2023-04-19T03:38:53;11.90;99.90
11497;DHT22;5805;51.542;7.230;2023-04-19T03:41:19;11.90;99.90
11497;DHT22;5805;51.542;7.230;2023-04-19T03:43:44;12.00;99.90
11497;DHT22;5805;51.542;7.230;2023-04-19T03:46:10;12.10;99.90
11497;DHT22;5805;51.542;7.230;2023-04-19T03:48:35;11.90;99.90
11497;DHT22;5805;51.542;7.230;2023-04-19T03:51:01;11.80;99.90
11497;DHT22;5805;51.542;7.230;2023-04-19T03:53:27;11.60;99.90
11497;DHT22;5805;51.542;7.230;2023-04-19T03:55:54;11.50;99.90
11497;DHT22;5805;51.542;7.230;2023-04-19T03:58:20;11.40;99.90
11497;DHT22;5805;51.542;7.230;2023-04-19T04:00:46;11.30;99.90
11497;DHT22;5805;51.542;7.230;2023-04-19T04:03:11;11.30;99.90
11497;DHT22;5805;51.542;7.230;2023-04-19T04:05:37;11.60;99.90
11497;DHT22;5805;51.542;7.230;2023-04-19T04:08:03;11.30;99.90
11497;DHT22;5805;51.542;7.230;2023-04-19T04:10:29;11.30;99.90
11497;DHT22;5805;51.542;7.230;2023-04-19T04:12:56;11.30;99.90
11497;DHT22;5805;51.542;7.230;2023-04-19T04:15:21;11.80;99.90
11497;DHT22;5805;51.542;7.230;2023-04-19T04:17:47;11.30;99.90
11497;DHT22;5805;51.542;7.230;2023-04-19T04:20:13;11.30;99.90
11497;DHT22;5805;51.542;7.230;2023-04-19T04:22:40;11.30;99.90
11497;DHT22;5805;51.542;7.230;2023-04-19T04:25:06;11.50;99.90
11497;DHT22;5805;51.542;7.230;2023-04-19T04:27:32;11.10;99.90
11497;DHT22;5805;51.542;7.230;2023-04-19T04:29:59;11.00;99.90
11497;DHT22;5805;51.542;7.230;2023-04-19T04:32:25;11.10;99.90
11497;DHT22;5805;51.542;7.230;2023-04-19T04:34:50;11.00;99.90
11497;DHT22;5805;51.542;7.230;2023-04-19T04:37:16;10.90;99.90
11497;DHT22;5805;51.542;7.230;2023-04-19T04:39:42;10.80;99.90
11497;DHT22;5805;51.542;7.230;2023-04-19T04:42:07;11.00;99.90
11497;DHT22;5805;51.542;7.230;2023-04-19T04:44:33;10.80;99.90
11497;DHT22;5805;51.542;7.230;2023-04-19T04:47:01;10.70;99.90
11497;DHT22;5805;51.542;7.230;2023-04-19T04:49:26;10.70;99.90
11497;DHT22;5805;51.542;7.230;2023-04-19T04:51:52;10.70;99.90
11497;DHT22;5805;51.542;7.230;2023-04-19T04:54:18;10.60;99.90
11497;DHT22;5805;51.542;7.230;2023-04-19T04:56:43;10.70;99.90
11497;DHT22;5805;51.542;7.230;2023-04-19T04:59:09;10.60;99.90
11497;DHT22;5805;51.542;7.230;2023-04-19T05:01:34;10.60;99.90
11497;DHT22;5805;51.542;7.230;2023-04-19T05:04:02;10.60;99.90
11497;DHT22;5805;51.542;7.230;2023-04-19T05:06:27;10.60;99.90
11497;DHT22;5805;51.542;7.230;2023-04-19T05:08:53;10.50;99.90
11497;DHT22;5805;51.542;7.230;2023-04-19T05:11:19;10.60;99.90
11497;DHT22;5805;51.542;7.230;2023-04-19T05:13:45;10.40;99.90
11497;DHT22;5805;51.542;7.230;2023-04-19T05:16:11;10.50;99.90
11497;DHT22;5805;51.542;7.230;2023-04-19T05:18:36;10.30;99.90
11497;DHT22;5805;51.542;7.230;2023-04-19T05:21:03;10.40;99.90
11497;DHT22;5805;51.542;7.230;2023-04-19T05:23:29;10.30;99.90
11497;DHT22;5805;51.542;7.230;2023-04-19T05:25:55;10.30;99.90
11497;DHT22;5805;51.542;7.230;2023-04-19T05:28:20;10.40;99.90
11497;DHT22;5805;51.542;7.230;2023-04-19T05:30:46;10.40;99.90
11497;DHT22;5805;51.542;7.230;2023-04-19T05:33:12;10.40;99.90
11497;DHT22;5805;51.542;7.230;2023-04-19T05:35:37;10.40;99.90
11497;DHT22;5805;51.542;7.230;2023-04-19T05:38:04;10.30;99.90
11497;DHT22;5805;51.542;7.230;2023-04-19T05:40:30;10.30;99.90
11497;DHT22;5805;51.542;7.230;2023-04-19T05:42:56;10.40;99.90
11497;DHT22;5805;51.542;7.230;2023-04-19T05:45:22;10.40;99.90
11497;DHT22;5805;51.542;7.230;2023-04-19T05:47:47;10.60;98.60
11497;DHT22;5805;51.542;7.230;2023-04-19T05:50:13;10.80;97.30
11497;DHT22;5805;51.542;7.230;2023-04-19T05:52:39;10.80;93.40
11497;DHT22;5805;51.542;7.230;2023-04-19T05:55:06;10.80;94.20
11497;DHT22;5805;51.542;7.230;2023-04-19T05:57:32;10.90;92.50
11497;DHT22;5805;51.542;7.230;2023-04-19T05:59:58;10.90;90.30
11497;DHT22;5805;51.542;7.230;2023-04-19T06:02:23;11.00;90.80
11497;DHT22;5805;51.542;7.230;2023-04-19T06:04:49;11.00;90.30
11497;DHT22;5805;51.542;7.230;2023-04-19T06:07:15;11.00;90.60
11497;DHT22;5805;51.542;7.230;2023-04-19T06:09:40;10.90;90.10
11497;DHT22;5805;51.542;7.230;2023-04-19T06:12:07;11.00;91.20
11497;DHT22;5805;51.542;7.230;2023-04-19T06:14:33;11.40;90.50
11497;DHT22;5805;51.542;7.230;2023-04-19T06:16:59;11.10;91.70
11497;DHT22;5805;51.542;7.230;2023-04-19T06:19:24;11.30;88.90
11497;DHT22;5805;51.542;7.230;2023-04-19T06:21:50;11.60;90.80
11497;DHT22;5805;51.542;7.230;2023-04-19T06:24:16;11.00;90.00
11497;DHT22;5805;51.542;7.230;2023-04-19T06:26:41;11.00;90.60
11497;DHT22;5805;51.542;7.230;2023-04-19T06:29:08;10.80;87.90
11497;DHT22;5805;51.542;7.230;2023-04-19T06:31:34;10.80;90.20
11497;DHT22;5805;51.542;7.230;2023-04-19T06:34:00;11.00;90.40
11497;DHT22;5805;51.542;7.230;2023-04-19T06:36:26;11.30;87.60
11497;DHT22;5805;51.542;7.230;2023-04-19T06:38:51;11.80;86.60
11497;DHT22;5805;51.542;7.230;2023-04-19T06:41:17;12.30;82.00
11497;DHT22;5805;51.542;7.230;2023-04-19T06:43:43;13.80;71.30
11497;DHT22;5805;51.542;7.230;2023-04-19T06:46:10;15.20;67.90
11497;DHT22;5805;51.542;7.230;2023-04-19T06:48:35;16.10;61.20
11497;DHT22;5805;51.542;7.230;2023-04-19T06:51:01;16.60;56.90
11497;DHT22;5805;51.542;7.230;2023-04-19T06:53:27;16.60;54.60
11497;DHT22;5805;51.542;7.230;2023-04-19T06:55:57;16.20;54.00
11497;DHT22;5805;51.542;7.230;2023-04-19T06:58:22;16.10;53.60
11497;DHT22;5805;51.542;7.230;2023-04-19T07:00:48;16.50;55.00
11497;DHT22;5805;51.542;7.230;2023-04-19T07:03:15;15.80;50.80
11497;DHT22;5805;51.542;7.230;2023-04-19T07:05:41;15.40;52.20
11497;DHT22;5805;51.542;7.230;2023-04-19T07:08:07;14.90;52.30
11497;DHT22;5805;51.542;7.230;2023-04-19T07:10:32;14.70;52.80
11497;DHT22;5805;51.542;7.230;2023-04-19T07:12:58;15.30;54.00
11497;DHT22;5805;51.542;7.230;2023-04-19T07:15:24;15.90;53.10
11497;DHT22;5805;51.542;7.230;2023-04-19T07:17:49;16.10;51.90
11497;DHT22;5805;51.542;7.230;2023-04-19T07:20:16;16.30;50.80
11497;DHT22;5805;51.542;7.230;2023-04-19T07:22:42;16.00;49.30
11497;DHT22;5805;51.542;7.230;2023-04-19T07:25:09;15.30;49.60
11497;DHT22;5805;51.542;7.230;2023-04-19T07:27:34;15.40;50.40
11497;DHT22;5805;51.542;7.230;2023-04-19T07:30:00;15.50;50.50
11497;DHT22;5805;51.542;7.230;2023-04-19T07:32:26;15.90;52.10
11497;DHT22;5805;51.542;7.230;2023-04-19T07:34:51;15.90;50.20
11497;DHT22;5805;51.542;7.230;2023-04-19T07:37:19;15.70;49.60
11497;DHT22;5805;51.542;7.230;2023-04-19T07:39:44;15.70;50.60
11497;DHT22;5805;51.542;7.230;2023-04-19T07:42:10;15.90;50.00
11497;DHT22;5805;51.542;7.230;2023-04-19T07:44:36;15.00;49.60
11497;DHT22;5805;51.542;7.230;2023-04-19T07:47:02;15.10;50.10
11497;DHT22;5805;51.542;7.230;2023-04-19T07:49:28;15.00;50.30
11497;DHT22;5805;51.542;7.230;2023-04-19T07:51:54;15.10;49.80
11497;DHT22;5805;51.542;7.230;2023-04-19T07:54:21;15.20;50.00
11497;DHT22;5805;51.542;7.230;2023-04-19T07:56:47;14.80;49.20
11497;DHT22;5805;51.542;7.230;2023-04-19T07:59:12;14.00;50.40
11497;DHT22;5805;51.542;7.230;2023-04-19T08:01:38;14.00;52.30
11497;DHT22;5805;51.542;7.230;2023-04-19T08:04:04;13.80;53.20
11497;DHT22;5805;51.542;7.230;2023-04-19T08:06:29;13.70;54.30
11497;DHT22;5805;51.542;7.230;2023-04-19T08:08:55;13.50;54.70
11497;DHT22;5805;51.542;7.230;2023-04-19T08:11:22;13.70;55.70
11497;DHT22;5805;51.542;7.230;2023-04-19T08:13:48;13.70;56.10
11497;DHT22;5805;51.542;7.230;2023-04-19T08:16:13;13.70;54.80
11497;DHT22;5805;51.542;7.230;2023-04-19T08:18:40;13.80;55.40
11497;DHT22;5805;51.542;7.230;2023-04-19T08:21:05;14.10;55.40
11497;DHT22;5805;51.542;7.230;2023-04-19T08:23:31;13.90;54.00
11497;DHT22;5805;51.542;7.230;2023-04-19T08:25:57;13.90;54.20
11497;DHT22;5805;51.542;7.230;2023-04-19T08:28:24;14.40;54.40
11497;DHT22;5805;51.542;7.230;2023-04-19T08:30:50;14.30;54.10
11497;DHT22;5805;51.542;7.230;2023-04-19T08:33:15;14.30;52.80
11497;DHT22;5805;51.542;7.230;2023-04-19T08:35:41;14.50;53.80
11497;DHT22;5805;51.542;7.230;2023-04-19T08:38:07;14.60;51.80
11497;DHT22;5805;51.542;7.230;2023-04-19T08:40:33;14.60;52.10
11497;DHT22;5805;51.542;7.230;2023-04-19T08:43:04;15.20;53.20
11497;DHT22;5805;51.542;7.230;2023-04-19T08:45:32;15.10;51.80
11497;DHT22;5805;51.542;7.230;2023-04-19T08:47:58;15.70;50.40
11497;DHT22;5805;51.542;7.230;2023-04-19T08:50:24;15.20;48.10
11497;DHT22;5805;51.542;7.230;2023-04-19T08:52:50;15.00;47.00
11497;DHT22;5805;51.542;7.230;2023-04-19T08:55:16;14.90;47.50
11497;DHT22;5805;51.542;7.230;2023-04-19T08:57:42;15.10;47.40
11497;DHT22;5805;51.542;7.230;2023-04-19T09:00:08;15.20;47.20
11497;DHT22;5805;51.542;7.230;2023-04-19T09:02:45;15.30;46.80
11497;DHT22;5805;51.542;7.230;2023-04-19T09:05:12;15.10;45.30
11497;DHT22;5805;51.542;7.230;2023-04-19T09:07:38;14.90;44.80
11497;DHT22;5805;51.542;7.230;2023-04-19T09:10:05;14.80;45.50
11497;DHT22;5805;51.542;7.230;2023-04-19T09:12:32;14.70;45.40
11497;DHT22;5805;51.542;7.230;2023-04-19T09:14:58;14.60;45.30
11497;DHT22;5805;51.542;7.230;2023-04-19T09:17:23;14.40;45.30
11497;DHT22;5805;51.542;7.230;2023-04-19T09:19:50;14.60;46.40
11497;DHT22;5805;51.542;7.230;2023-04-19T09:22:16;15.30;46.30
11497;DHT22;5805;51.542;7.230;2023-04-19T09:24:42;15.00;45.00
11497;DHT22;5805;51.542;7.230;2023-04-19T09:27:08;15.00;44.90
11497;DHT22;5805;51.542;7.230;2023-04-19T09:29:34;15.10;44.40
11497;DHT22;5805;51.542;7.230;2023-04-19T09:32:00;15.80;44.60
11497;DHT22;5805;51.542;7.230;2023-04-19T09:34:25;15.50;45.30
11497;DHT22;5805;51.542;7.230;2023-04-19T09:36:54;15.70;44.60
11497;DHT22;5805;51.542;7.230;2023-04-19T09:39:28;16.90;43.40
11497;DHT22;5805;51.542;7.230;2023-04-19T09:41:54;15.60;44.60
11497;DHT22;5805;51.542;7.230;2023-04-19T09:44:20;15.70;45.70
11497;DHT22;5805;51.542;7.230;2023-04-19T09:46:46;15.80;46.60
11497;DHT22;5805;51.542;7.230;2023-04-19T09:49:15;16.20;47.30
11497;DHT22;5805;51.542;7.230;2023-04-19T09:51:42;15.70;47.50
11497;DHT22;5805;51.542;7.230;2023-04-19T09:54:10;15.70;47.70
11497;DHT22;5805;51.542;7.230;2023-04-19T09:56:37;15.80;47.60
11497;DHT22;5805;51.542;7.230;2023-04-19T09:59:03;15.70;46.90
11497;DHT22;5805;51.542;7.230;2023-04-19T10:01:30;15.70;47.00
11497;DHT22;5805;51.542;7.230;2023-04-19T10:03:59;15.70;47.80
11497;DHT22;5805;51.542;7.230;2023-04-19T10:06:25;15.60;46.40
11497;DHT22;5805;51.542;7.230;2023-04-19T10:08:52;15.60;46.70
11497;DHT22;5805;51.542;7.230;2023-04-19T10:11:20;15.80;46.50
11497;DHT22;5805;51.542;7.230;2023-04-19T10:13:46;15.80;45.10
11497;DHT22;5805;51.542;7.230;2023-04-19T10:16:13;15.70;44.50
11497;DHT22;5805;51.542;7.230;2023-04-19T10:18:38;16.20;46.10
11497;DHT22;5805;51.542;7.230;2023-04-19T10:21:06;16.10;45.90
11497;DHT22;5805;51.542;7.230;2023-04-19T10:23:32;16.40;44.60
11497;DHT22;5805;51.542;7.230;2023-04-19T10:25:59;16.60;45.80
11497;DHT22;5805;51.542;7.230;2023-04-19T10:28:27;16.10;43.60
11497;DHT22;5805;51.542;7.230;2023-04-19T10:30:54;16.20;44.50
11497;DHT22;5805;51.542;7.230;2023-04-19T10:33:24;16.20;41.00
11497;DHT22;5805;51.542;7.230;2023-04-19T10:35:50;15.70;38.90
11497;DHT22;5805;51.542;7.230;2023-04-19T10:38:15;16.90;40.20
11497;DHT22;5805;51.542;7.230;2023-04-19T10:40:58;15.80;40.70
11497;DHT22;5805;51.542;7.230;2023-04-19T10:43:26;15.90;40.30
11497;DHT22;5805;51.542;7.230;2023-04-19T10:45:52;16.00;41.60
11497;DHT22;5805;51.542;7.230;2023-04-19T10:48:48;16.00;43.80
11497;DHT22;5805;51.542;7.230;2023-04-19T10:51:16;16.00;44.70
11497;DHT22;5805;51.542;7.230;2023-04-19T10:53:52;16.00;44.90
11497;DHT22;5805;51.542;7.230;2023-04-19T10:56:20;16.10;44.30
11497;DHT22;5805;51.542;7.230;2023-04-19T10:59:17;16.10;44.20
11497;DHT22;5805;51.542;7.230;2023-04-19T11:01:44;16.00;44.20
11497;DHT22;5805;51.542;7.230;2023-04-19T11:04:11;15.90;44.20
11497;DHT22;5805;51.542;7.230;2023-04-19T11:06:38;15.90;43.40
11497;DHT22;5805;51.542;7.230;2023-04-19T11:09:21;16.90;43.90
11497;DHT22;5805;51.542;7.230;2023-04-19T11:11:47;17.20;43.70
11497;DHT22;5805;51.542;7.230;2023-04-19T11:14:12;16.10;42.10
11497;DHT22;5805;51.542;7.230;2023-04-19T11:16:40;16.00;42.10
11497;DHT22;5805;51.542;7.230;2023-04-19T11:19:05;17.20;42.10
11497;DHT22;5805;51.542;7.230;2023-04-19T11:21:31;16.30;41.20
11497;DHT22;5805;51.542;7.230;2023-04-19T11:24:06;16.20;40.20
11497;DHT22;5805;51.542;7.230;2023-04-19T11:26:32;16.20;40.10
11497;DHT22;5805;51.542;7.230;2023-04-19T11:28:58;16.20;40.20
11497;DHT22;5805;51.542;7.230;2023-04-19T11:31:24;17.40;40.70
11497;DHT22;5805;51.542;7.230;2023-04-19T11:33:51;16.30;40.20
11497;DHT22;5805;51.542;7.230;2023-04-19T11:36:17;16.40;40.50
11497;DHT22;5805;51.542;7.230;2023-04-19T11:38:46;16.30;40.50
11497;DHT22;5805;51.542;7.230;2023-04-19T11:41:12;18.00;41.70
11497;DHT22;5805;51.542;7.230;2023-04-19T11:43:38;17.80;41.60
11497;DHT22;5805;51.542;7.230;2023-04-19T11:46:04;17.80;41.00
11497;DHT22;5805;51.542;7.230;2023-04-19T11:48:30;16.70;39.90
11497;DHT22;5805;51.542;7.230;2023-04-19T11:50:58;16.30;40.60
11497;DHT22;5805;51.542;7.230;2023-04-19T11:53:26;16.20;40.70
11497;DHT22;5805;51.542;7.230;2023-04-19T11:55:52;16.20;40.90
11497;DHT22;5805;51.542;7.230;2023-04-19T11:58:29;16.20;40.80
11497;DHT22;5805;51.542;7.230;2023-04-19T12:00:55;17.10;41.30
11497;DHT22;5805;51.542;7.230;2023-04-19T12:03:21;16.30;41.00
11497;DHT22;5805;51.542;7.230;2023-04-19T12:06:01;16.50;41.50
11497;DHT22;5805;51.542;7.230;2023-04-19T12:08:31;16.50;40.40
11497;DHT22;5805;51.542;7.230;2023-04-19T12:10:58;16.50;40.60
11497;DHT22;5805;51.542;7.230;2023-04-19T12:13:24;16.40;39.90
11497;DHT22;5805;51.542;7.230;2023-04-19T12:15:50;16.20;40.00
11497;DHT22;5805;51.542;7.230;2023-04-19T12:18:15;16.10;40.50
11497;DHT22;5805;51.542;7.230;2023-04-19T12:20:44;16.20;40.70
11497;DHT22;5805;51.542;7.230;2023-04-19T12:23:11;16.20;40.90
11497;DHT22;5805;51.542;7.230;2023-04-19T12:25:37;16.10;40.70
11497;DHT22;5805;51.542;7.230;2023-04-19T12:28:03;16.30;41.70
11497;DHT22;5805;51.542;7.230;2023-04-19T12:30:29;16.40;40.70
11497;DHT22;5805;51.542;7.230;2023-04-19T12:32:55;16.20;40.80
11497;DHT22;5805;51.542;7.230;2023-04-19T12:35:20;16.20;40.40
11497;DHT22;5805;51.542;7.230;2023-04-19T12:37:46;16.80;41.10
11497;DHT22;5805;51.542;7.230;2023-04-19T12:40:14;17.70;41.60
11497;DHT22;5805;51.542;7.230;2023-04-19T12:42:39;16.20;41.10
11497;DHT22;5805;51.542;7.230;2023-04-19T12:45:06;16.00;41.40
11497;DHT22;5805;51.542;7.230;2023-04-19T12:47:32;16.00;41.30
11497;DHT22;5805;51.542;7.230;2023-04-19T12:49:57;16.20;42.40
11497;DHT22;5805;51.542;7.230;2023-04-19T12:52:23;16.40;42.70
11497;DHT22;5805;51.542;7.230;2023-04-19T12:54:49;16.90;41.20
11497;DHT22;5805;51.542;7.230;2023-04-19T12:57:16;17.90;41.10
11497;DHT22;5805;51.542;7.230;2023-04-19T12:59:41;16.40;39.40
11497;DHT22;5805;51.542;7.230;2023-04-19T13:02:07;16.40;39.20
11497;DHT22;5805;51.542;7.230;2023-04-19T13:04:33;16.40;38.90
11497;DHT22;5805;51.542;7.230;2023-04-19T13:06:58;16.10;38.80
11497;DHT22;5805;51.542;7.230;2023-04-19T13:09:26;15.90;39.10
11497;DHT22;5805;51.542;7.230;2023-04-19T13:11:52;16.00;39.90
11497;DHT22;5805;51.542;7.230;2023-04-19T13:14:20;16.00;39.20
11497;DHT22;5805;51.542;7.230;2023-04-19T13:16:45;16.10;40.10
11497;DHT22;5805;51.542;7.230;2023-04-19T13:19:11;16.30;39.80
11497;DHT22;5805;51.542;7.230;2023-04-19T13:21:37;16.10;38.50
11497;DHT22;5805;51.542;7.230;2023-04-19T13:24:02;16.10;38.80
11497;DHT22;5805;51.542;7.230;2023-04-19T13:26:28;16.00;38.30
11497;DHT22;5805;51.542;7.230;2023-04-19T13:28:54;15.80;38.80
11497;DHT22;5805;51.542;7.230;2023-04-19T13:31:21;16.00;39.20
11497;DHT22;5805;51.542;7.230;2023-04-19T13:33:46;17.50;40.50
11497;DHT22;5805;51.542;7.230;2023-04-19T13:36:12;16.90;39.60
11497;DHT22;5805;51.542;7.230;2023-04-19T13:38:38;16.00;38.90
11497;DHT22;5805;51.542;7.230;2023-04-19T13:41:04;15.90;39.60
11497;DHT22;5805;51.542;7.230;2023-04-19T13:43:29;16.50;40.30
11497;DHT22;5805;51.542;7.230;2023-04-19T13:45:55;16.10;39.70
11497;DHT22;5805;51.542;7.230;2023-04-19T13:48:22;15.90;37.90
11497;DHT22;5805;51.542;7.230;2023-04-19T13:50:48;15.70;37.30
11497;DHT22;5805;51.542;7.230;2023-04-19T13:53:13;17.10;37.90
11497;DHT22;5805;51.542;7.230;2023-04-19T13:55:39;15.60;37.70
11497;DHT22;5805;51.542;7.230;2023-04-19T13:58:05;15.80;37.90
11497;DHT22;5805;51.542;7.230;2023-04-19T14:00:30;15.70;38.10
11497;DHT22;5805;51.542;7.230;2023-04-19T14:02:56;15.70;37.00
11497;DHT22;5805;51.542;7.230;2023-04-19T14:05:23;15.60;37.10
11497;DHT22;5805;51.542;7.230;2023-04-19T14:07:49;15.70;37.40
11497;DHT22;5805;51.542;7.230;2023-04-19T14:10:14;17.20;38.50
11497;DHT22;5805;51.542;7.230;2023-04-19T14:12:40;15.70;38.20
11497;DHT22;5805;51.542;7.230;2023-04-19T14:15:07;17.30;39.60
11497;DHT22;5805;51.542;7.230;2023-04-19T14:17:32;15.60;37.90
11497;DHT22;5805;51.542;7.230;2023-04-19T14:19:58;15.80;38.60
11497;DHT22;5805;51.542;7.230;2023-04-19T14:22:25;15.90;38.60
11497;DHT22;5805;51.542;7.230;2023-04-19T14:24:51;16.30;39.20
11497;DHT22;5805;51.542;7.230;2023-04-19T14:27:16;15.60;39.40
11497;DHT22;5805;51.542;7.230;2023-04-19T14:29:42;15.60;39.60
11497;DHT22;5805;51.542;7.230;2023-04-19T14:32:08;14.00;38.70
11497;DHT22;5805;51.542;7.230;2023-04-19T14:34:33;16.50;40.30
11497;DHT22;5805;51.542;7.230;2023-04-19T14:36:59;15.60;40.20
11497;DHT22;5805;51.542;7.230;2023-04-19T14:39:26;15.90;40.40
11497;DHT22;5805;51.542;7.230;2023-04-19T14:41:52;15.40;39.40
11497;DHT22;5805;51.542;7.230;2023-04-19T14:44:17;15.30;39.10
11497;DHT22;5805;51.542;7.230;2023-04-19T14:46:43;15.30;38.40
11497;DHT22;5805;51.542;7.230;2023-04-19T14:49:08;15.60;38.10
11497;DHT22;5805;51.542;7.230;2023-04-19T14:51:34;16.20;39.10
11497;DHT22;5805;51.542;7.230;2023-04-19T14:54:00;15.50;39.20
11497;DHT22;5805;51.542;7.230;2023-04-19T14:56:27;16.00;39.70
11497;DHT22;5805;51.542;7.230;2023-04-19T14:58:53;15.60;39.20
11497;DHT22;5805;51.542;7.230;2023-04-19T15:01:18;16.00;39.40
11497;DHT22;5805;51.542;7.230;2023-04-19T15:03:44;15.60;39.30
11497;DHT22;5805;51.542;7.230;2023-04-19T15:06:10;15.70;39.30
11497;DHT22;5805;51.542;7.230;2023-04-19T15:08:35;15.60;38.40
11497;DHT22;5805;51.542;7.230;2023-04-19T15:11:01;16.60;39.50
11497;DHT22;5805;51.542;7.230;2023-04-19T15:13:28;15.60;38.70
11497;DHT22;5805;51.542;7.230;2023-04-19T15:15:54;15.60;38.20
11497;DHT22;5805;51.542;7.230;2023-04-19T15:18:19;15.60;38.60
11497;DHT22;5805;51.542;7.230;2023-04-19T15:20:45;16.20;38.80
11497;DHT22;5805;51.542;7.230;2023-04-19T15:23:11;16.10;38.70
11497;DHT22;5805;51.542;7.230;2023-04-19T15:25:36;15.80;38.90
11497;DHT22;5805;51.542;7.230;2023-04-19T15:28:02;16.40;39.00
11497;DHT22;5805;51.542;7.230;2023-04-19T15:30:30;15.90;37.90
11497;DHT22;5805;51.542;7.230;2023-04-19T15:32:55;16.90;37.20
11497;DHT22;5805;51.542;7.230;2023-04-19T15:35:23;15.60;37.80
11497;DHT22;5805;51.542;7.230;2023-04-19T15:37:49;15.60;37.20
11497;DHT22;5805;51.542;7.230;2023-04-19T15:40:14;15.60;36.70